Tiempo atmosférico en la estación meteorológica de Fresno De Sayago, Zamora (804 m.)



Fecha
DESCASC
Temp. máxima en grados centígrados (hora)
DESCASC
Temp. mínima en grados centígrados (hora)
DESCASC
Temp. media en grados centígrados
DESCASC
Racha de viento máxima en m/sg (hora)
DESCASC
Velocidad máxima media en intervalos de 10 minutos(hora)
DESCASC
Precipitaciones diarias en mm
DESCASC
Precipitaciones de 00:00 a 06:00 en mm
DESCASC
Precipitaciones de 06:00 a 12:00 en mm
DESCASC
Precipitaciones de 12:00 a 18:00 en mm
DESCASC
Precipitaciones de 18:00 a 24:00 en mm
DESCASC
18-04-2019 15.6 (16:30) 3.9 (07:30) 9.8 9.72 (18:40) 6.67 (18:40) 2.4 1.4 0 0 1
17-04-2019 17 (15:20) 7.4 (01:00) 12.2 14.17 (16:50) 8.61 (16:40) 3.6 0 0 0 3.6
16-04-2019 18.9 (16:20) 0.1 (00:00) 9.5 7.22 (18:40) 4.44 (11:10) 0 0 0 0 0
15-04-2019 17.9 (12:30) 5.3 (00:00) 11.6 20.83 (14:40) 15 (14:50) 0.2 0 0 0 0.2
14-04-2019 18.4 (18:20) 8.8 (00:00) 13.6 8.89 (14:40) 4.72 (14:10) 0 0 0 0 0
13-04-2019 20 (17:10) 3.3 (00:00) 11.6 8.33 (20:50) 6.39 (20:50) 0 0 0 0 0
12-04-2019 19.3 (19:20) -0.9 (06:50) 9.2 6.39 (08:40) 4.72 (02:10) 0 0 0 0 0
11-04-2019 15.2 (18:50) -2.1 (-00:0) 6.5 6.39 (00:10) 4.72 (00:10) 0 0 0 0 0
10-04-2019 12.4 (16:30) 4 (00:00) 8.2 13.33 (15:20) 9.17 (10:50) 7.6 0 0 6.8 0.8
09-04-2019 10.4 (17:00) 3.8 (00:00) 7.1 15.83 (17:40) 9.72 (15:50) 2.8 0.2 1.6 0.2 0.8
08-04-2019 11.4 (13:30) 4.3 (00:00) 7.8 14.17 (04:40) 9.17 (14:10) 3 1 0.2 1.6 0.2
07-04-2019 8.6 (14:40) 1.6 (00:00) 5.1 10.83 (15:20) 7.22 (23:59) 5.6 0.2 0 2.4 3
06-04-2019 8.3 (18:30) 1.8 (00:00) 5.1 17.5 (12:40) 12.78 (16:30) 4.2 0 2 2.2 0
05-04-2019 9.8 (17:30) 1.5 (00:00) 5.7 15.83 (18:10) 10.28 (18:20) 5 3.6 0 0 1.4
04-04-2019 9.7 (16:10) -5.5 (-00:0) 2.1 12.5 (16:40) 8.33 (23:59) 1.2 0 0 0 1.2
03-04-2019 12.1 (16:30) 0.8 (08:10) 6.5 15.28 (16:50) 9.44 (17:40) 0 0 0 0 0
02-04-2019 17.2 (17:10) 5.5 (00:00) 11.4 12.5 (18:40) 7.78 (19:30) 0 0 0 0 0
01-04-2019 20.3 (17:10) 0.8 (00:00) 10.5 8.06 (21:20) 5.28 (21:20) 0 0 0 0 0
31-03-2019 18.8 (17:10) 1.6 (00:00) 10.2 10.28 (12:40) 6.67 (12:30) 0 0 0 0 0
30-03-2019 21.3 (17:00) 2 (00:00) 11.6 6.67 (17:30) 4.44 (17:40) 0 0 0 0 0
29-03-2019 20.7 (16:40) -0.5 (-00:0) 10.1 8.89 (04:40) 5.56 (03:10) 0 0 0 0 0
28-03-2019 17.5 (16:10) -0.2 (00:00) 8.6 12.5 (06:40) 8.06 (06:40) 0 0 0 0 0
27-03-2019 18.1 (16:50) -0.8 (-00:0) 8.7 13.61 (10:40) 10 (10:10) 0 0 0 0 0
26-03-2019 17.4 (16:50) 0.2 (00:00) 8.8 19.17 (09:40) 12.5 (10:20) 0 0 0 0 0
25-03-2019 16.2 (15:10) 3.1 (00:00) 9.7 15.56 (10:40) 10.83 (16:20) 0 0 0 0 0
24-03-2019 20.5 (17:00) 1.9 (00:00) 11.2 13.33 (16:40) 7.5 (14:40) 0 0 0 0 0
23-03-2019 19.8 (16:10) -0.1 (00:00) 9.8 15.28 (14:10) 6.94 (11:30) 0 0 0 0 0
22-03-2019 17.5 (16:10) -1.8 (-00:0) 7.9 7.22 (08:40) 5.28 (06:40) 0 0 0 0 0
21-03-2019 15.4 (16:30) -2.1 (-00:0) 6.6 10.28 (07:40) 6.67 (08:50) 0 0 0 0 0

Gráficas

Temp. máximas Temp. mínimas Temp. medias Precipitaciones Rachas de viento máximas Velocidades máximas media en intervalos de 10 minutos

Datos horarios

Fecha y hora oficial Temperatura (ºC) Velocidad del viento (km/h) Dirección del viento Racha (km/h) Dirección de racha Precipitación (mm) Presión (hPa) Tendencia (hPa) Humedad (%)
2019-04-19 23:00:00 11.4 30 Nordeste 47 Nordeste 0 -- -- 65
2019-04-19 22:00:00 11.4 28 Nordeste 40 Nordeste 0 -- -- 70
2019-04-19 21:00:00 11.6 26 Nordeste 42 Este 0 -- -- 69
2019-04-19 20:00:00 11.6 35 Nordeste 51 Este 0 -- -- 65
2019-04-19 19:00:00 12.1 37 Nordeste 57 Nordeste 0 -- -- 66
2019-04-19 18:00:00 13.3 40 Este 54 Nordeste 0 -- -- 58
2019-04-19 17:00:00 15.1 28 Este 44 Este 0 -- -- 51
2019-04-19 16:00:00 15.1 23 Este 37 Este 0 -- -- 47
2019-04-19 15:00:00 14.2 26 Este 39 Nordeste 0 -- -- 59
2019-04-19 14:00:00 13.8 22 Este 36 Nordeste 0 -- -- 63
2019-04-19 13:00:00 12.8 25 Este 37 Nordeste 0 -- -- 68
2019-04-19 12:00:00 11.6 28 Este 41 Nordeste 0 -- -- 75
2019-04-19 11:00:00 11 18 Este 27 Este 0 -- -- 80
2019-04-19 10:00:00 8.7 17 Este 23 Este 0 -- -- 91
2019-04-19 09:00:00 8.1 12 Sudeste 19 Este 0 -- -- 97
2019-04-19 08:00:00 7.1 10 Sudeste 20 Este 0 -- -- 100
2019-04-19 07:00:00 7.2 10 Nordeste 15 Nordeste 0 -- -- 100
2019-04-19 06:00:00 6.8 8 Nordeste 11 Nordeste 0.2 -- -- 100
2019-04-19 05:00:00 7.2 10 Nordeste 25 Nordeste 1.8 -- -- 100
2019-04-19 04:00:00 8 6 Este 18 Nordeste 4.6 -- -- 100
2019-04-19 03:00:00 8.1 12 Nordeste 18 Nordeste 2.6 -- -- 100
2019-04-19 02:00:00 7.8 10 Noroeste 16 Oeste 1.8 -- -- 100
2019-04-19 01:00:00 7.7 8 Noroeste 12 Oeste 0.6 -- -- 98
2019-04-19 00:00:00 7.8 5 Norte 17 Nordeste 0.6 -- -- 95
2019-04-18 23:00:00 8.3 10 Nordeste 13 Nordeste 0.4 -- -- 82
2019-04-18 22:00:00 9 11 Nordeste 21 Nordeste 0 -- -- 71
2019-04-18 21:00:00 9.5 14 Nordeste 27 Este 0 -- -- 65
2019-04-18 20:00:00 11.5 23 Este 33 Este 0 -- -- 58
2019-04-18 19:00:00 12.4 24 Nordeste 35 Este 0 -- -- 52
2019-04-18 18:00:00 13.8 22 Este 31 Nordeste 0 -- -- 49
2019-04-18 17:00:00 14.5 13 Nordeste 21 Nordeste 0 -- -- 39
2019-04-18 16:00:00 14.4 8 Nordeste 20 Este 0 -- -- 42
2019-04-18 15:00:00 13.9 8 Este 19 Nordeste 0 -- -- 45
2019-04-18 14:00:00 12.9 10 Este 19 Este 0 -- -- 52
2019-04-18 13:00:00 11.5 6 Nordeste 9 Nordeste 0 -- -- 60
2019-04-18 12:00:00 11 3 Sudoeste 10 Sudoeste 0 -- -- 60
2019-04-18 11:00:00 10.6 6 Sur 15 Sur 0 -- -- 68
2019-04-18 10:00:00 8.6 6 Sudeste 11 Sudeste 0 -- -- 98
2019-04-18 09:00:00 5.4 6 Sudeste 11 Sur 0 -- -- 100
2019-04-18 08:00:00 3.9 7 Sudeste 11 Sur 0 -- -- 100
2019-04-18 07:00:00 4.2 8 Sudoeste 13 Sudoeste 0 -- -- 100
2019-04-18 06:00:00 5.8 4 Sur 13 Sudoeste 0.2 -- -- 100
2019-04-18 05:00:00 6.7 8 Sudoeste 18 Sudoeste 0 -- -- 99
2019-04-18 04:00:00 6.9 11 Sudoeste 23 Sudoeste 0 -- -- 99
2019-04-18 03:00:00 7.7 17 Sudoeste 32 Sudoeste 0.4 -- -- 98
2019-04-18 02:00:00 7.8 14 Sudoeste 28 Sudoeste 0.6 -- -- 99
2019-04-18 01:00:00 7.8 19 Sudoeste 32 Sudoeste 0.2 -- -- 99
2019-04-18 00:00:00 8.2 20 Sudoeste 28 Sudoeste 0.2 -- -- 96
2019-04-17 23:00:00 8.3 15 Sur 25 Sur 0.4 -- -- 94
2019-04-17 22:00:00 8.5 14 Sudoeste 23 Sudoeste 0.6 -- -- 96
2019-04-17 21:00:00 8.8 20 Sudoeste 38 Sudoeste 2.4 -- -- 96
2019-04-17 20:00:00 10 24 Oeste 49 Oeste 0 -- -- 80
2019-04-17 19:00:00 15.6 26 Sur 46 Sur 0 -- -- 36
2019-04-17 18:00:00 16 21 Sur 43 Sur 0 -- -- 35
2019-04-17 17:00:00 16.3 30 Sur 51 Sur 0 -- -- 30
2019-04-17 16:00:00 16.7 26 Sur 47 Sur 0 -- -- 30
2019-04-17 15:00:00 16.4 24 Sur 39 Sur 0 -- -- 34
2019-04-17 14:00:00 15.7 21 Sur 39 Sur 0 -- -- 39
2019-04-17 13:00:00 15.8 12 Sur 41 Sur 0 -- -- 39
2019-04-17 12:00:00 14.2 17 Oeste 41 Sudoeste 0 -- -- 45
2019-04-17 11:00:00 14.4 27 Sur 39 Sudoeste 0 -- -- 43
2019-04-17 10:00:00 14.3 0 Calma 17 Sudeste 0 -- -- 41
2019-04-17 09:00:00 11.4 11 Sudeste 16 Sudeste 0 -- -- 52
2019-04-17 08:00:00 9.9 7 Sudeste 19 Sudeste 0 -- -- 53
2019-04-17 07:00:00 8.8 6 Sudeste 18 Sudeste 0 -- -- 57
2019-04-17 06:00:00 10.4 11 Sur 18 Sur 0 -- -- 50
2019-04-17 05:00:00 10.3 9 Sudeste 16 Sur 0 -- -- 49
2019-04-17 04:00:00 10.2 7 Sudeste 17 Sur 0 -- -- 52
2019-04-17 03:00:00 10.5 9 Sudeste 20 Este 0 -- -- 50
2019-04-17 02:00:00 11 16 Este 27 Este 0 -- -- 44
2019-04-17 01:00:00 7.4 14 Este 20 Este 0 -- -- 65
2019-04-17 00:00:00 9 4 Sudeste 7 Este 0 -- -- 51
2019-04-16 23:00:00 8.9 4 Sudeste 5 Sudeste 0 -- -- 56
2019-04-16 22:00:00 10.6 3 Sudoeste 7 Sudoeste 0 -- -- 48
2019-04-16 21:00:00 13.4 5 Sudoeste 11 Sudoeste 0 -- -- 36
2019-04-16 20:00:00 17.3 7 Sudoeste 22 Sudoeste 0 -- -- 24
2019-04-16 19:00:00 17.8 9 Sur 26 Sudoeste 0 -- -- 21
2019-04-16 18:00:00 18.4 10 Sudoeste 23 Sudoeste 0 -- -- 23
2019-04-16 17:00:00 18.1 9 Sudeste 22 Sudoeste 0 -- -- 26
2019-04-16 16:00:00 18.3 7 Sur 20 Sudeste 0 -- -- 28
2019-04-16 15:00:00 16.9 11 Sur 21 Sur 0 -- -- 29
2019-04-16 14:00:00 15.5 14 Sur 22 Sur 0 -- -- 36
2019-04-16 13:00:00 15.5 11 Sudeste 21 Este 0 -- -- 39
2019-04-16 12:00:00 13.2 11 Sudeste 23 Este 0 -- -- 57
2019-04-16 11:00:00 10.5 15 Este 22 Este 0 -- -- 76
2019-04-16 10:00:00 8.4 10 Este 15 Este 0 -- -- 93
2019-04-16 09:00:00 3.8 0 Calma 8 Este 0 -- -- 100
2019-04-16 08:00:00 1.6 4 Sudeste 7 Sudeste 0 -- -- 100
2019-04-16 07:00:00 1.1 5 Sudeste 7 Sudeste 0 -- -- 100
2019-04-16 06:00:00 1.6 0 Calma 9 Sudoeste 0 -- -- 100
2019-04-16 05:00:00 1.8 4 Sur 10 Sur 0 -- -- 100
2019-04-16 04:00:00 2.2 5 Sur 8 Sudoeste 0 -- -- 99
2019-04-16 03:00:00 2.6 5 Sudoeste 7 Sur 0 -- -- 96
2019-04-16 02:00:00 3.8 3 Sudoeste 9 Sudoeste 0 -- -- 91
2019-04-16 01:00:00 4.9 4 Sur 10 Oeste 0 -- -- 92
2019-04-16 00:00:00 5.3 7 Sudoeste 16 Oeste 0 -- -- 79
2019-04-15 23:00:00 8.1 8 Oeste 18 Oeste 0 -- -- 69
2019-04-15 22:00:00 8.8 15 Oeste 22 Oeste 0 -- -- 69
2019-04-15 21:00:00 10 12 Oeste 28 Sudoeste 0 -- -- 69
2019-04-15 20:00:00 11.5 20 Oeste 32 Oeste 0.2 -- -- 66
2019-04-15 19:00:00 10.7 22 Oeste 33 Oeste 0 -- -- 71
2019-04-15 18:00:00 13.1 22 Oeste 41 Oeste 0 -- -- 56
2019-04-15 17:00:00 11.1 26 Oeste 57 Oeste 0 -- -- 63
2019-04-15 16:00:00 13.1 45 Oeste 62 Oeste 0 -- -- 46
2019-04-15 15:00:00 13.1 51 Oeste 75 Oeste 0 -- -- 52
2019-04-15 14:00:00 17.2 35 Sudoeste 52 Sudoeste 0 -- -- 46
2019-04-15 13:00:00 15.1 24 Oeste 64 Oeste 0 -- -- 63
2019-04-15 12:00:00 17.4 36 Sudoeste 52 Sudoeste 0 -- -- 68
2019-04-15 11:00:00 16.4 22 Sur 31 Sur 0 -- -- 75
2019-04-15 10:00:00 14 11 Sur 17 Sur 0 -- -- 86
2019-04-15 09:00:00 12.4 9 Sur 18 Sudeste 0 -- -- 90
2019-04-15 08:00:00 11.9 11 Sudeste 18 Sudeste 0 -- -- 89
2019-04-15 07:00:00 11.6 7 Sur 11 Sudeste 0 -- -- 90
2019-04-15 06:00:00 11.3 5 Sur 10 Sudeste 0 -- -- 93
2019-04-15 05:00:00 10.4 4 Sur 8 Sur 0 -- -- 96
2019-04-15 04:00:00 10.7 4 Sur 9 Sudeste 0 -- -- 95
2019-04-15 03:00:00 10.2 3 Sur 8 Sur 0 -- -- 96
2019-04-15 02:00:00 10.9 3 Sudoeste 6 Sur 0 -- -- 92
2019-04-15 01:00:00 11.3 4 Sudoeste 10 Sudeste 0 -- -- 90
2019-04-15 00:00:00 12.9 6 Sudeste 9 Sudeste 0 -- -- 85
2019-04-14 23:00:00 12.5 3 Sudeste 5 Sudeste 0 -- -- 85
2019-04-14 22:00:00 11.5 4 Sudeste 5 Sudeste 0 -- -- 90
2019-04-14 21:00:00 14.8 0 Calma 13 Oeste 0 -- -- 77
2019-04-14 20:00:00 17.1 9 Oeste 16 Oeste 0 -- -- 69
2019-04-14 19:00:00 17.8 8 Oeste 22 Oeste 0 -- -- 64
2019-04-14 18:00:00 17.9 13 Oeste 25 Oeste 0 -- -- 62
2019-04-14 17:00:00 17.9 13 Sudoeste 27 Oeste 0 -- -- 64
2019-04-14 16:00:00 17.9 14 Oeste 31 Sudoeste 0 -- -- 64
2019-04-14 15:00:00 17.3 14 Oeste 32 Sudoeste 0 -- -- 71
2019-04-14 14:00:00 16.9 8 Oeste 23 Oeste 0 -- -- 70
2019-04-14 13:00:00 16 14 Oeste 22 Oeste 0 -- -- 76
2019-04-14 12:00:00 15.5 11 Sudoeste 22 Sudoeste 0 -- -- 78
2019-04-14 11:00:00 13.1 9 Sudoeste 17 Oeste 0 -- -- 89
2019-04-14 10:00:00 11.8 11 Sudoeste 19 Sudoeste 0 -- -- 96
2019-04-14 09:00:00 10.4 9 Sur 16 Sur 0 -- -- 100
2019-04-14 08:00:00 9.2 9 Sudoeste 16 Sudoeste 0 -- -- 100
2019-04-14 07:00:00 9.7 12 Sudoeste 13 Sudoeste 0 -- -- 100
2019-04-14 06:00:00 9.3 5 Sudoeste 7 Sudoeste 0 -- -- 100
2019-04-14 05:00:00 8.8 6 Sudoeste 13 Sudoeste 0 -- -- 99
2019-04-14 04:00:00 10.3 9 Sudoeste 15 Oeste 0 -- -- 81
2019-04-14 03:00:00 10.6 7 Sudoeste 14 Oeste 0 -- -- 77
2019-04-14 02:00:00 10.6 11 Sudoeste 23 Oeste 0 -- -- 74
2019-04-14 01:00:00 11.3 8 Oeste 22 Oeste 0 -- -- 68
2019-04-14 00:00:00 12.3 14 Oeste 19 Oeste 0 -- -- 61
2019-04-13 23:00:00 13.3 16 Oeste 24 Oeste 0 -- -- 53
2019-04-13 22:00:00 13.9 16 Oeste 26 Oeste 0 -- -- 46
2019-04-13 21:00:00 15.4 22 Oeste 30 Oeste 0 -- -- 42
2019-04-13 20:00:00 17.7 22 Oeste 29 Oeste 0 -- -- 29
2019-04-13 19:00:00 17.8 16 Oeste 27 Oeste 0 -- -- 29
2019-04-13 18:00:00 18.8 14 Oeste 28 Oeste 0 -- -- 26
2019-04-13 17:00:00 19.5 13 Sudoeste 27 Sudoeste 0 -- -- 20
2019-04-13 16:00:00 18.8 12 Sudoeste 25 Sudoeste 0 -- -- 22
2019-04-13 15:00:00 18.5 10 Sudoeste 22 Sudoeste 0 -- -- 21
2019-04-13 14:00:00 17.7 10 Sur 18 Sur 0 -- -- 24
2019-04-13 13:00:00 16.6 9 Sudoeste 15 Sudoeste 0 -- -- 29
2019-04-13 12:00:00 15.6 6 Sur 11 Sur 0 -- -- 29
2019-04-13 11:00:00 14.2 4 Sur 8 Sudoeste 0 -- -- 43
2019-04-13 10:00:00 10.6 5 Sudoeste 9 Sudoeste 0 -- -- 53
2019-04-13 09:00:00 6 2 Sur 7 Sudoeste 0 -- -- 72
2019-04-13 08:00:00 5.2 6 Sudoeste 7 Sudoeste 0 -- -- 72
2019-04-13 07:00:00 5.5 5 Sudoeste 9 Sudeste 0 -- -- 68
2019-04-13 06:00:00 5.8 5 Sur 9 Sudeste 0 -- -- 62
2019-04-13 05:00:00 4.9 5 Sudeste 17 Oeste 0 -- -- 64
2019-04-13 04:00:00 5.8 5 Sudoeste 23 Oeste 0 -- -- 56
2019-04-13 03:00:00 5.1 4 Sudeste 9 Sudeste 0 -- -- 60
2019-04-13 02:00:00 4.6 8 Sudeste 9 Sudeste 0 -- -- 62
2019-04-13 01:00:00 4.4 2 Sur 3 Sur 0 -- -- 64
2019-04-13 00:00:00 5.7 0 Calma 8 Oeste 0 -- -- 58
2019-04-12 23:00:00 7.8 5 Sudeste 9 Sudeste 0 -- -- 47
2019-04-12 22:00:00 8.9 6 Sudeste 7 Sudeste 0 -- -- 44
2019-04-12 21:00:00 12.7 5 Sudeste 6 Sudeste 0 -- -- 34
2019-04-12 20:00:00 19 0 Calma 8 Norte 0 -- -- 18
2019-04-12 19:00:00 17.1 7 Nordeste 12 Norte 0 -- -- 19
2019-04-12 18:00:00 16.6 6 Noroeste 13 Nordeste 0 -- -- 20
2019-04-12 17:00:00 15.6 8 Norte 18 Norte 0 -- -- 27
2019-04-12 16:00:00 16 4 Nordeste 14 Este 0 -- -- 26
2019-04-12 15:00:00 14.6 4 Oeste 15 Noroeste 0 -- -- 33
2019-04-12 14:00:00 15.2 4 Este 13 Nordeste 0 -- -- 34
2019-04-12 13:00:00 12.6 8 Este 20 Este 0 -- -- 45
2019-04-12 12:00:00 10.2 13 Este 22 Este 0 -- -- 57
2019-04-12 11:00:00 7.5 17 Este 22 Este 0 -- -- 69
2019-04-12 10:00:00 5.2 13 Este 18 Nordeste 0 -- -- 97
2019-04-12 09:00:00 1.7 12 Nordeste 23 Nordeste 0 -- -- 100
2019-04-12 08:00:00 -0.5 14 Nordeste 20 Nordeste 0 -- -- 100
2019-04-12 07:00:00 -0.9 11 Nordeste 15 Este 0 -- -- 100
2019-04-12 06:00:00 0.3 13 Nordeste 19 Nordeste 0 -- -- 99
2019-04-12 05:00:00 0.7 12 Nordeste 19 Nordeste 0 -- -- 99
2019-04-12 04:00:00 0.4 11 Nordeste 13 Nordeste 0 -- -- 95
2019-04-12 03:00:00 1.7 12 Nordeste 19 Nordeste 0 -- -- 78
2019-04-12 02:00:00 4 17 Nordeste 19 Nordeste 0 -- -- 71
2019-04-12 01:00:00 4.5 9 Norte 18 Norte 0 -- -- 67
2019-04-12 00:00:00 3.4 4 Sudeste 6 Sudeste 0 -- -- 76
2019-04-11 23:00:00 4.6 0 Calma 6 Sudeste 0 -- -- 68
2019-04-11 22:00:00 7 2 Sur 7 Sudeste 0 -- -- 58
2019-04-11 21:00:00 10.5 3 Oeste 7 Oeste 0 -- -- 41
2019-04-11 20:00:00 11.8 0 Calma 14 Norte 0 -- -- 36
2019-04-11 19:00:00 14.3 5 Norte 18 Norte 0 -- -- 27
2019-04-11 18:00:00 12.8 5 Noroeste 13 Noroeste 0 -- -- 31
2019-04-11 17:00:00 13.7 7 Norte 14 Noroeste 0 -- -- 31
2019-04-11 16:00:00 11.9 8 Noroeste 22 Norte 0 -- -- 35
2019-04-11 15:00:00 13.5 7 Este 14 Norte 0 -- -- 34
2019-04-11 14:00:00 12.3 8 Nordeste 17 Nordeste 0 -- -- 38
2019-04-11 13:00:00 10.9 7 Nordeste 13 Nordeste 0 -- -- 44
2019-04-11 12:00:00 10.7 5 Este 14 Nordeste 0 -- -- 53
2019-04-11 11:00:00 8.1 8 Este 16 Este 0 -- -- 73
2019-04-11 10:00:00 4.9 10 Nordeste 16 Nordeste 0 -- -- 100
2019-04-11 09:00:00 0.8 9 Nordeste 11 Este 0 -- -- 100
2019-04-11 08:00:00 -2 8 Nordeste 12 Nordeste 0 -- -- 100
2019-04-11 07:00:00 -0.9 5 Nordeste 6 Este 0 -- -- 100
2019-04-11 06:00:00 -1.1 2 Este 8 Nordeste 0 -- -- 100
2019-04-11 05:00:00 0.2 8 Nordeste 9 Nordeste 0 -- -- 100
2019-04-11 04:00:00 0.5 9 Nordeste 12 Nordeste 0 -- -- 100
2019-04-11 03:00:00 0.7 12 Nordeste 15 Nordeste 0 -- -- 98
2019-04-11 02:00:00 1.7 13 Nordeste 21 Nordeste 0 -- -- 91
2019-04-11 01:00:00 4.3 14 Nordeste 23 Nordeste 0 -- -- 81
2019-04-11 00:00:00 5.4 18 Nordeste 26 Nordeste 0 -- -- 78
2019-04-10 23:00:00 5 8 Norte 13 Norte 0 -- -- 98
2019-04-10 22:00:00 5 0 Calma 9 Nordeste 0.4 -- -- 98
2019-04-10 21:00:00 5.5 5 Sudoeste 8 Oeste 0 -- -- 98
2019-04-10 20:00:00 5.6 2 Sudeste 13 Sudoeste 0.2 -- -- 88
2019-04-10 19:00:00 4.5 9 Sudoeste 15 Sudoeste 0.2 -- -- 84
2019-04-10 18:00:00 4.5 6 Sudoeste 34 Nordeste 6.4 -- -- 77
2019-04-10 17:00:00 10.1 18 Oeste 43 Oeste 0.4 -- -- 63
2019-04-10 16:00:00 9.8 21 Noroeste 48 Oeste 0 -- -- 59
2019-04-10 15:00:00 11.4 26 Oeste 40 Noroeste 0 -- -- 50
2019-04-10 14:00:00 11.2 28 Oeste 45 Oeste 0 -- -- 51
2019-04-10 13:00:00 9.9 25 Oeste 42 Oeste 0 -- -- 55
2019-04-10 12:00:00 8.8 31 Oeste 45 Oeste 0 -- -- 60
2019-04-10 11:00:00 7.5 31 Oeste 42 Oeste 0 -- -- 64
2019-04-10 10:00:00 5.9 23 Oeste 33 Oeste 0 -- -- 74
2019-04-10 09:00:00 4.6 24 Oeste 36 Oeste 0 -- -- 85
2019-04-10 08:00:00 4.2 24 Oeste 37 Oeste 0 -- -- 87
2019-04-10 07:00:00 4.6 21 Oeste 36 Oeste 0 -- -- 88
2019-04-10 06:00:00 4.8 23 Oeste 32 Oeste 0 -- -- 83
2019-04-10 05:00:00 5.1 13 Oeste 22 Sudoeste 0 -- -- 89
2019-04-10 04:00:00 4.9 17 Sudoeste 28 Sudoeste 0 -- -- 89
2019-04-10 03:00:00 4.8 16 Oeste 30 Oeste 0 -- -- 87
2019-04-10 02:00:00 4.4 22 Oeste 31 Oeste 0 -- -- 88
2019-04-10 01:00:00 4.3 16 Oeste 33 Oeste 0 -- -- 85
2019-04-10 00:00:00 4.9 20 Oeste 32 Oeste 0 -- -- 84
2019-04-09 23:00:00 5.2 21 Oeste 37 Sudoeste 0 -- -- 83
2019-04-09 22:00:00 6.2 20 Oeste 38 Oeste 0 -- -- 84
2019-04-09 21:00:00 6.8 21 Oeste 37 Oeste 0 -- -- 77
2019-04-09 20:00:00 7 22 Oeste 53 Oeste 0.8 -- -- 75
2019-04-09 19:00:00 9.3 31 Oeste 48 Oeste 0 -- -- 57
2019-04-09 18:00:00 8.5 23 Oeste 57 Oeste 0 -- -- 64
2019-04-09 17:00:00 10.4 25 Oeste 45 Oeste 0 -- -- 54
2019-04-09 16:00:00 8.8 26 Oeste 52 Oeste 0.2 -- -- 64
2019-04-09 15:00:00 9.2 29 Oeste 49 Oeste 0 -- -- 54
2019-04-09 14:00:00 9 31 Oeste 46 Oeste 0 -- -- 55
2019-04-09 13:00:00 7.2 25 Oeste 40 Oeste 0 -- -- 69
2019-04-09 12:00:00 4.9 28 Oeste 44 Oeste 0 -- -- 86
2019-04-09 11:00:00 4.3 34 Sudoeste 51 Sudoeste 0.6 -- -- 94
2019-04-09 10:00:00 4.8 30 Sudoeste 45 Sudoeste 0.6 -- -- 89
2019-04-09 09:00:00 4.9 23 Sudoeste 41 Sudoeste 0.2 -- -- 95
2019-04-09 08:00:00 4.5 24 Sudoeste 37 Sudoeste 0 -- -- 93
2019-04-09 07:00:00 4.7 24 Sudoeste 37 Sudoeste 0.2 -- -- 92
2019-04-09 06:00:00 4.4 20 Sudoeste 31 Sudoeste 0 -- -- 91
2019-04-09 05:00:00 4.4 21 Sudoeste 30 Sudoeste 0.2 -- -- 89
2019-04-09 04:00:00 3.9 12 Sudoeste 22 Sudoeste 0 -- -- 85
2019-04-09 03:00:00 3.8 12 Sudoeste 26 Oeste 0 -- -- 86
2019-04-09 02:00:00 4.6 17 Sudoeste 27 Sudoeste 0 -- -- 85
2019-04-09 01:00:00 5 21 Sudoeste 34 Sudoeste 0 -- -- 82
2019-04-09 00:00:00 5 19 Sudoeste 31 Sudoeste 0 -- -- 82
2019-04-08 23:00:00 5.4 20 Sudoeste 29 Sudoeste 0 -- -- 78
2019-04-08 22:00:00 4.7 13 Sudoeste 17 Sudoeste 0 -- -- 82
2019-04-08 21:00:00 6.2 8 Sudoeste 23 Sudoeste 0 -- -- 74
2019-04-08 20:00:00 9.5 16 Sudoeste 29 Oeste 0.2 -- -- 63
2019-04-08 19:00:00 8.2 14 Oeste 26 Oeste 0 -- -- 68
2019-04-08 18:00:00 6.6 20 Oeste 44 Oeste 1.6 -- -- 78
2019-04-08 17:00:00 10.5 18 Oeste 32 Oeste 0 -- -- 51
2019-04-08 16:00:00 10 24 Oeste 47 Sudoeste 0 -- -- 57
2019-04-08 15:00:00 10.8 21 Sudoeste 45 Oeste 0 -- -- 52
2019-04-08 14:00:00 9.9 29 Oeste 44 Oeste 0 -- -- 62
2019-04-08 13:00:00 9.9 23 Oeste 35 Oeste 0 -- -- 62
2019-04-08 12:00:00 8.3 17 Oeste 35 Oeste 0 -- -- 71
2019-04-08 11:00:00 8.1 21 Oeste 32 Noroeste 0 -- -- 73
2019-04-08 10:00:00 7.2 21 Oeste 35 Oeste 0 -- -- 86
2019-04-08 09:00:00 5.9 15 Oeste 25 Oeste 0 -- -- 99
2019-04-08 08:00:00 6.1 13 Oeste 30 Oeste 0.2 -- -- 98
2019-04-08 07:00:00 6.6 26 Oeste 41 Oeste 0 -- -- 96
2019-04-08 06:00:00 6.7 22 Sudoeste 37 Sudoeste 0 -- -- 98
2019-04-08 05:00:00 7.6 27 Oeste 51 Oeste 0.2 -- -- 98
2019-04-08 04:00:00 7.7 22 Sudoeste 36 Sudoeste 0.4 -- -- 99
2019-04-08 03:00:00 7.5 22 Sudoeste 31 Sudoeste 0.4 -- -- 97
2019-04-08 02:00:00 7.5 23 Sudoeste 35 Sudoeste 0 -- -- 96
2019-04-08 01:00:00 7.6 22 Sudoeste 39 Sudoeste 0 -- -- 98
2019-04-08 00:00:00 7.8 26 Sudoeste 39 Sudoeste 0 -- -- 97
2019-04-07 23:00:00 8 23 Sudoeste 34 Sudoeste 0.2 -- -- 99
2019-04-07 22:00:00 7.8 25 Sudoeste 36 Sudoeste 0.4 -- -- 100
2019-04-07 21:00:00 6.9 15 Sur 23 Sudoeste 1.2 -- -- 99
2019-04-07 20:00:00 6.6 14 Sur 27 Sur 0.6 -- -- 97
2019-04-07 19:00:00 6.8 15 Sur 23 Sudoeste 0.6 -- -- 85
2019-04-07 18:00:00 6.8 14 Sudoeste 19 Sudoeste 1.2 -- -- 86
2019-04-07 17:00:00 6.7 9 Sudoeste 25 Sudoeste 0.8 -- -- 73
2019-04-07 16:00:00 6.7 16 Sudoeste 39 Sudoeste 0.4 -- -- 66
2019-04-07 15:00:00 8 24 Sudoeste 32 Sudoeste 0 -- -- 64
2019-04-07 14:00:00 7.9 18 Sudoeste 28 Sudoeste 0 -- -- 61
2019-04-07 13:00:00 8 16 Sudoeste 25 Sudoeste 0 -- -- 58
2019-04-07 12:00:00 6.1 15 Sudoeste 23 Sudoeste 0 -- -- 62
2019-04-07 11:00:00 5.6 15 Oeste 28 Oeste 0 -- -- 68
2019-04-07 10:00:00 4.3 12 Sudoeste 27 Oeste 0 -- -- 81
2019-04-07 09:00:00 2.9 13 Sudoeste 18 Sudoeste 0 -- -- 97
2019-04-07 08:00:00 1.7 9 Oeste 20 Sudoeste 0 -- -- 98
2019-04-07 07:00:00 2.9 14 Oeste 27 Oeste 0 -- -- 94
2019-04-07 06:00:00 2.7 9 Oeste 19 Oeste 0 -- -- 98
2019-04-07 05:00:00 2.4 13 Oeste 29 Oeste 0 -- -- 96
2019-04-07 04:00:00 3.1 19 Oeste 32 Oeste 0 -- -- 92
2019-04-07 03:00:00 3.2 23 Oeste 32 Oeste 0 -- -- 94
2019-04-07 02:00:00 2.8 22 Oeste 33 Oeste 0 -- -- 95
2019-04-07 01:00:00 3.1 22 Oeste 36 Oeste 0.2 -- -- 95
2019-04-07 00:00:00 3.2 23 Oeste 35 Oeste 0 -- -- 80
2019-04-06 23:00:00 3.3 12 Sudoeste 36 Oeste 0 -- -- 79
2019-04-06 22:00:00 3.9 18 Oeste 38 Oeste 0 -- -- 73
2019-04-06 21:00:00 4.5 27 Oeste 54 Oeste 0 -- -- 64
2019-04-06 20:00:00 6.4 35 Oeste 53 Oeste 0 -- -- 54
2019-04-06 19:00:00 7.9 39 Oeste 60 Oeste 0 -- -- 44
2019-04-06 18:00:00 7.4 40 Oeste 61 Oeste 0 -- -- 53
2019-04-06 17:00:00 8 36 Oeste 60 Oeste 0 -- -- 56
2019-04-06 16:00:00 4.8 38 Oeste 62 Oeste 0.2 -- -- 74
2019-04-06 15:00:00 4.2 35 Oeste 57 Oeste 0.8 -- -- 82
2019-04-06 14:00:00 4.4 44 Sudoeste 61 Sudoeste 0.4 -- -- 77
2019-04-06 13:00:00 4.1 36 Sudoeste 63 Sudoeste 0.8 -- -- 88
2019-04-06 12:00:00 2.6 35 Sudoeste 55 Sudoeste 0.6 -- -- 94
2019-04-06 11:00:00 2.7 36 Sudoeste 54 Sudoeste 1 -- -- 95
2019-04-06 10:00:00 2.3 33 Sudoeste 50 Sudoeste 0.2 -- -- 94
2019-04-06 09:00:00 2.3 26 Sudoeste 42 Sudoeste 0 -- -- 94
2019-04-06 08:00:00 2.3 34 Sudoeste 51 Sudoeste 0 -- -- 94
2019-04-06 07:00:00 2.6 22 Sudoeste 38 Sudoeste 0.2 -- -- 98
2019-04-06 06:00:00 2.8 30 Sudoeste 44 Oeste 0 -- -- 96
2019-04-06 05:00:00 2.7 21 Sudoeste 30 Sudoeste 0 -- -- 97
2019-04-06 04:00:00 2 18 Sudoeste 36 Sudoeste 0 -- -- 96
2019-04-06 03:00:00 2.7 20 Sudoeste 30 Sudoeste 0 -- -- 95
2019-04-06 02:00:00 2.7 23 Sudoeste 33 Sudoeste 0 -- -- 97
2019-04-06 01:00:00 2 21 Sudoeste 31 Oeste 0 -- -- 95
2019-04-06 00:00:00 2.5 19 Oeste 30 Oeste 0 -- -- 94
2019-04-05 23:00:00 2.8 16 Oeste 30 Oeste 0 -- -- 95
2019-04-05 22:00:00 2.3 15 Oeste 33 Sudoeste 0.6 -- -- 95
2019-04-05 21:00:00 2.5 17 Sudoeste 33 Oeste 0.2 -- -- 95
2019-04-05 20:00:00 4.3 19 Sudoeste 28 Oeste 0 -- -- 75
2019-04-05 19:00:00 3.4 19 Oeste 57 Oeste 0.6 -- -- 82
2019-04-05 18:00:00 9 25 Sudoeste 41 Sudoeste 0 -- -- 35
2019-04-05 17:00:00 7.5 21 Oeste 42 Sudoeste 0 -- -- 46
2019-04-05 16:00:00 9 23 Oeste 37 Oeste 0 -- -- 38
2019-04-05 15:00:00 7.1 23 Oeste 37 Oeste 0 -- -- 51
2019-04-05 14:00:00 5.5 21 Oeste 35 Sudoeste 0 -- -- 54
2019-04-05 13:00:00 5.4 24 Oeste 37 Oeste 0 -- -- 59
2019-04-05 12:00:00 4.2 19 Oeste 34 Sudoeste 0 -- -- 67
2019-04-05 11:00:00 3.4 21 Oeste 31 Oeste 0 -- -- 75
2019-04-05 10:00:00 3.7 22 Oeste 34 Sudoeste 0 -- -- 75
2019-04-05 09:00:00 2.6 20 Sudoeste 28 Sudoeste 0 -- -- 95
2019-04-05 08:00:00 1.6 18 Sudoeste 26 Sudoeste 0 -- -- 96
2019-04-05 07:00:00 2.6 16 Sudoeste 30 Sudoeste 0 -- -- 98
2019-04-05 06:00:00 2.6 19 Sudoeste 41 Oeste 1 -- -- 98
2019-04-05 05:00:00 3.9 22 Sudoeste 44 Sudoeste 0.2 -- -- 97
2019-04-05 04:00:00 3.8 28 Sudoeste 43 Sudoeste 0.2 -- -- 98
2019-04-05 03:00:00 3.7 27 Sudoeste 39 Sudoeste 0.4 -- -- 97
2019-04-05 02:00:00 3.5 27 Sudoeste 48 Sur 1.2 -- -- 96
2019-04-05 01:00:00 3.4 26 Sur 40 Sur 0.6 -- -- 88
2019-04-05 00:00:00 3.6 30 Sur 41 Sur 0 -- -- 87
2019-04-04 23:00:00 3.3 17 Sudoeste 26 Sudoeste 0.2 -- -- 90
2019-04-04 22:00:00 3.4 16 Sudoeste 28 Sudoeste 0.6 -- -- 91
2019-04-04 21:00:00 4 19 Oeste 34 Sudoeste 0.4 -- -- 79
2019-04-04 20:00:00 4.8 19 Sudoeste 36 Oeste 0 -- -- 70
2019-04-04 19:00:00 5.9 19 Oeste 37 Oeste 0 -- -- 57
2019-04-04 18:00:00 8 23 Oeste 41 Oeste 0 -- -- 39
2019-04-04 17:00:00 8.5 26 Oeste 45 Oeste 0 -- -- 33
2019-04-04 16:00:00 9.3 27 Oeste 40 Sudoeste 0 -- -- 30
2019-04-04 15:00:00 9 25 Oeste 40 Oeste 0 -- -- 30
2019-04-04 14:00:00 8.1 20 Oeste 39 Oeste 0 -- -- 39
2019-04-04 13:00:00 6.9 16 Oeste 30 Oeste 0 -- -- 40
2019-04-04 12:00:00 6.2 12 Oeste 26 Oeste 0 -- -- 45
2019-04-04 11:00:00 4.2 15 Oeste 27 Oeste 0 -- -- 51
2019-04-04 10:00:00 1.6 10 Sudoeste 14 Sudoeste 0 -- -- 67
2019-04-04 09:00:00 -2.6 7 Sudoeste 9 Sudoeste 0 -- -- 81
2019-04-04 08:00:00 -5 4 Sur 9 Sudeste 0 -- -- 94
2019-04-04 07:00:00 -5 6 Sudoeste 9 Oeste 0 -- -- 83
2019-04-04 06:00:00 -3.6 6 Noroeste 16 Noroeste 0 -- -- 81
2019-04-04 05:00:00 -1.8 13 Oeste 14 Oeste 0 -- -- 74
2019-04-04 04:00:00 -3.1 6 Sudoeste 16 Oeste 0 -- -- 74
2019-04-04 03:00:00 -2.7 6 Sudoeste 14 Oeste 0 -- -- 76
2019-04-04 02:00:00 -1.5 10 Noroeste 15 Noroeste 0 -- -- 68
2019-04-04 01:00:00 0 8 Noroeste 14 Noroeste 0 -- -- 62
2019-04-04 00:00:00 1.1 8 Noroeste 15 Noroeste 0 -- -- 56
2019-04-03 23:00:00 2.9 7 Oeste 21 Noroeste 0 -- -- 45
2019-04-03 22:00:00 2.6 11 Noroeste 21 Noroeste 0 -- -- 46
2019-04-03 21:00:00 5.1 10 Noroeste 38 Noroeste 0 -- -- 43
2019-04-03 20:00:00 9.6 20 Noroeste 40 Noroeste 0 -- -- 25
2019-04-03 19:00:00 10.9 21 Noroeste 51 Oeste 0 -- -- 23
2019-04-03 18:00:00 11.4 23 Noroeste 52 Oeste 0 -- -- 22
2019-04-03 17:00:00 11 31 Noroeste 55 Noroeste 0 -- -- 26
2019-04-03 16:00:00 10.6 27 Noroeste 43 Oeste 0 -- -- 26
2019-04-03 15:00:00 10.4 17 Noroeste 32 Noroeste 0 -- -- 29
2019-04-03 14:00:00 10.9 16 Noroeste 30 Noroeste 0 -- -- 27
2019-04-03 13:00:00 9.8 11 Noroeste 23 Oeste 0 -- -- 33
2019-04-03 12:00:00 7.7 6 Noroeste 19 Noroeste 0 -- -- 49
2019-04-03 11:00:00 6.8 9 Noroeste 24 Noroeste 0 -- -- 54
2019-04-03 10:00:00 4.2 15 Oeste 28 Oeste 0 -- -- 65
2019-04-03 09:00:00 2.4 11 Oeste 22 Oeste 0 -- -- 76
2019-04-03 08:00:00 1.1 12 Sudoeste 22 Sudoeste 0 -- -- 84
2019-04-03 07:00:00 1.8 14 Oeste 21 Oeste 0 -- -- 94
2019-04-03 06:00:00 0.9 9 Sudoeste 17 Oeste 0 -- -- 85
2019-04-03 05:00:00 3.7 12 Oeste 14 Oeste 0 -- -- 75
2019-04-03 04:00:00 5.2 13 Oeste 17 Oeste 0 -- -- 68
2019-04-03 03:00:00 5.1 9 Noroeste 17 Oeste 0 -- -- 65
2019-04-03 02:00:00 2.3 3 Oeste 8 Oeste 0 -- -- 65
2019-04-03 01:00:00 4.1 3 Sudoeste 10 Oeste 0 -- -- 58
2019-04-03 00:00:00 6.9 9 Oeste 12 Noroeste 0 -- -- 46
2019-04-02 23:00:00 7.3 11 Noroeste 19 Oeste 0 -- -- 43
2019-04-02 22:00:00 9 9 Noroeste 12 Oeste 0 -- -- 33
2019-04-02 21:00:00 10.8 12 Oeste 33 Oeste 0 -- -- 28
2019-04-02 20:00:00 14.9 26 Oeste 38 Oeste 0 -- -- 20
2019-04-02 19:00:00 16.2 27 Oeste 45 Oeste 0 -- -- 14
2019-04-02 18:00:00 16.8 26 Oeste 43 Oeste 0 -- -- 17
2019-04-02 17:00:00 16.8 19 Oeste 36 Oeste 0 -- -- 24
2019-04-02 16:00:00 16.3 17 Oeste 35 Oeste 0 -- -- 25
2019-04-02 15:00:00 16.1 12 Oeste 29 Oeste 0 -- -- 33
2019-04-02 14:00:00 15.1 14 Oeste 26 Noroeste 0 -- -- 34
2019-04-02 13:00:00 14.4 11 Oeste 20 Noroeste 0 -- -- 43
2019-04-02 12:00:00 12.4 6 Oeste 15 Noroeste 0 -- -- 48
2019-04-02 11:00:00 9.7 8 Oeste 12 Noroeste 0 -- -- 61
2019-04-02 10:00:00 8.3 5 Oeste 9 Oeste 0 -- -- 67
2019-04-02 09:00:00 5.8 4 Sudoeste 13 Oeste 0 -- -- 87
2019-04-02 08:00:00 6 10 Oeste 14 Oeste 0 -- -- 86
2019-04-02 07:00:00 6.1 9 Sudoeste 11 Sudoeste 0 -- -- 82
2019-04-02 06:00:00 6.2 4 Sudoeste 12 Oeste 0 -- -- 80
2019-04-02 05:00:00 6.3 6 Sudoeste 11 Sudoeste 0 -- -- 78
2019-04-02 04:00:00 5.7 8 Sudoeste 11 Sudoeste 0 -- -- 82
2019-04-02 03:00:00 5.9 3 Sur 9 Sudoeste 0 -- -- 76
2019-04-02 02:00:00 6.2 7 Sudoeste 14 Oeste 0 -- -- 72
2019-04-02 01:00:00 7.6 5 Sudoeste 19 Sudoeste 0 -- -- 65
2019-04-02 00:00:00 8.4 4 Nordeste 9 Noroeste 0 -- -- 61
2019-04-01 23:00:00 9.4 5 Sur 13 Oeste 0 -- -- 58
2019-04-01 22:00:00 10.3 10 Oeste 29 Oeste 0 -- -- 55
2019-04-01 21:00:00 10.6 15 Oeste 28 Oeste 0 -- -- 52
2019-04-01 20:00:00 12.8 15 Norte 27 Noroeste 0 -- -- 42
2019-04-01 19:00:00 17.9 6 Noroeste 14 Oeste 0 -- -- 16
2019-04-01 18:00:00 19.5 6 Oeste 15 Nordeste 0 -- -- 15
2019-04-01 17:00:00 19.8 6 Este 11 Nordeste 0 -- -- 18
2019-04-01 16:00:00 19 5 Oeste 11 Oeste 0 -- -- 20
2019-04-01 15:00:00 18.1 7 Este 13 Sudeste 0 -- -- 22
2019-04-01 14:00:00 15.5 6 Este 25 Nordeste 0 -- -- 32
2019-04-01 13:00:00 13.2 12 Nordeste 20 Este 0 -- -- 47
2019-04-01 12:00:00 11.1 9 Nordeste 17 Nordeste 0 -- -- 56
2019-04-01 11:00:00 7.8 9 Nordeste 14 Nordeste 0 -- -- 67
2019-04-01 10:00:00 5.3 8 Nordeste 11 Nordeste 0 -- -- 89
2019-04-01 09:00:00 2 3 Nordeste 17 Nordeste 0 -- -- 99
2019-04-01 08:00:00 1.1 9 Nordeste 22 Nordeste 0 -- -- 97
2019-04-01 07:00:00 2.8 16 Nordeste 21 Nordeste 0 -- -- 98
2019-04-01 06:00:00 1.6 9 Nordeste 11 Nordeste 0 -- -- 88
2019-04-01 05:00:00 3.4 4 Noroeste 24 Nordeste 0 -- -- 96
2019-04-01 04:00:00 3.8 16 Nordeste 18 Nordeste 0 -- -- 93
2019-04-01 03:00:00 5.5 11 Este 21 Nordeste 0 -- -- 75
2019-04-01 02:00:00 5.7 18 Este 21 Nordeste 0 -- -- 76
2019-04-01 01:00:00 8.2 10 Sudeste 24 Este 0 -- -- 61
2019-04-01 00:00:00 9.2 17 Este 21 Este 0 -- -- 56
2019-03-31 23:00:00 6.2 15 Este 22 Nordeste 0 -- -- 61
2019-03-31 22:00:00 7.4 9 Nordeste 13 Este 0 -- -- 51
2019-03-31 21:00:00 9.6 9 Nordeste 28 Nordeste 0 -- -- 43
2019-03-31 20:00:00 13.9 17 Nordeste 31 Nordeste 0 -- -- 32
2019-03-31 19:00:00 16.6 17 Nordeste 29 Nordeste 0 -- -- 22
2019-03-31 18:00:00 16.2 17 Nordeste 26 Nordeste 0 -- -- 25
2019-03-31 17:00:00 17.8 10 Norte 25 Nordeste 0 -- -- 15
2019-03-31 16:00:00 18.1 17 Nordeste 31 Nordeste 0 -- -- 19
2019-03-31 15:00:00 17.4 17 Este 35 Este 0 -- -- 23
2019-03-31 14:00:00 15.9 18 Nordeste 30 Este 0 -- -- 30
2019-03-31 13:00:00 14.2 22 Este 37 Nordeste 0 -- -- 35
2019-03-31 12:00:00 11.6 23 Nordeste 32 Nordeste 0 -- -- 36
2019-03-31 11:00:00 9 19 Nordeste 27 Nordeste 0 -- -- 44
2019-03-31 10:00:00 5.4 23 Nordeste 33 Nordeste 0 -- -- 60
2019-03-31 09:00:00 2.6 22 Nordeste 28 Nordeste 0 -- -- 71
2019-03-31 08:00:00 1.8 18 Nordeste 28 Nordeste 0 -- -- 73
2019-03-31 07:00:00 2.8 18 Nordeste 30 Nordeste 0 -- -- 69
2019-03-31 06:00:00 3.8 22 Nordeste 26 Nordeste 0 -- -- 66
2019-03-31 05:00:00 3.9 18 Nordeste 25 Nordeste 0 -- -- 65
2019-03-31 03:00:00 3.7 10 Nordeste 18 Nordeste 0 -- -- 61
2019-03-31 01:00:00 5.6 11 Nordeste 20 Este 0 -- -- 52
2019-03-31 00:00:00 5.5 13 Nordeste 16 Nordeste 0 -- -- 49
2019-03-30 23:00:00 4.6 12 Nordeste 14 Nordeste 0 -- -- 59
2019-03-30 22:00:00 5.8 11 Nordeste 12 Nordeste 0 -- -- 54
2019-03-30 21:00:00 9 9 Este 10 Este 0 -- -- 45
2019-03-30 20:00:00 12.3 5 Este 14 Nordeste 0 -- -- 36
2019-03-30 19:00:00 16.3 13 Nordeste 19 Nordeste 0 -- -- 20
2019-03-30 18:00:00 15.3 14 Nordeste 24 Nordeste 0 -- -- 23
2019-03-30 17:00:00 21.3 3 Sudeste 14 Sur 0 -- -- 10
2019-03-30 16:00:00 20.4 7 Sudeste 21 Este 0 -- -- 12
2019-03-30 15:00:00 20.3 7 Sudeste 15 Sudeste 0 -- -- 12
2019-03-30 14:00:00 19.8 3 Sur 15 Sur 0 -- -- 16
2019-03-30 13:00:00 17.5 8 Noroeste 20 Noroeste 0 -- -- 17
2019-03-30 12:00:00 16.1 10 Oeste 23 Oeste 0 -- -- 19
2019-03-30 11:00:00 13.9 8 Oeste 17 Sudoeste 0 -- -- 22
2019-03-30 10:00:00 11.8 4 Sudoeste 8 Sudoeste 0 -- -- 35
2019-03-30 09:00:00 8 3 Sudoeste 4 Sudoeste 0 -- -- 48
2019-03-30 08:00:00 2.8 2 Sur 7 Sudoeste 0 -- -- 58
2019-03-30 07:00:00 2.1 5 Sudoeste 15 Sur 0 -- -- 59
2019-03-30 06:00:00 2.5 5 Sur 8 Sur 0 -- -- 55
2019-03-30 05:00:00 3.5 6 Sur 9 Sur 0 -- -- 51
2019-03-30 04:00:00 3 4 Sur 9 Sudeste 0 -- -- 53
2019-03-30 03:00:00 3.4 5 Sudoeste 9 Sur 0 -- -- 51
2019-03-30 02:00:00 5.2 6 Sudoeste 13 Oeste 0 -- -- 45
2019-03-30 01:00:00 4.8 5 Sudoeste 12 Sudoeste 0 -- -- 49
2019-03-30 00:00:00 5.3 5 Sudoeste 22 Sudoeste 0 -- -- 48
2019-03-29 23:00:00 7.4 5 Sudeste 13 Sudeste 0 -- -- 37
2019-03-29 22:00:00 5.6 -- -- -- -- 0 -- -- 48
2019-03-29 21:00:00 8 0 Calma 10 Oeste 0 -- -- 36
2019-03-29 20:00:00 12.6 9 Oeste 12 Oeste 0 -- -- 21
2019-03-29 19:00:00 17.3 6 Oeste 13 Oeste 0 -- -- 17
2019-03-29 18:00:00 19.4 5 Sudoeste 15 Sudoeste 0 -- -- 11
2019-03-29 17:00:00 19 7 Sudoeste 16 Sur 0 -- -- 13
2019-03-29 16:00:00 18.5 9 Noroeste 18 Oeste 0 -- -- 12
2019-03-29 15:00:00 18.1 9 Noroeste 16 Oeste 0 -- -- 14
2019-03-29 14:00:00 17.5 9 Oeste 21 Noroeste 0 -- -- 18
2019-03-29 13:00:00 16.1 7 Noroeste 14 Oeste 0 -- -- 24
2019-03-29 12:00:00 14.9 6 Noroeste 14 Este 0 -- -- 29
2019-03-29 11:00:00 11.8 6 Nordeste 13 Nordeste 0 -- -- 37
2019-03-29 10:00:00 8 10 Nordeste 17 Este 0 -- -- 55
2019-03-29 09:00:00 4 15 Nordeste 23 Nordeste 0 -- -- 62
2019-03-29 08:00:00 1.1 15 Nordeste 20 Nordeste 0 -- -- 73
2019-03-29 07:00:00 0.1 15 Nordeste 22 Nordeste 0 -- -- 78
2019-03-29 06:00:00 0.6 11 Nordeste 22 Nordeste 0 -- -- 76
2019-03-29 05:00:00 1.4 17 Nordeste 32 Nordeste 0 -- -- 73
2019-03-29 04:00:00 0.7 17 Nordeste 22 Nordeste 0 -- -- 76
2019-03-29 03:00:00 2.1 19 Nordeste 26 Nordeste 0 -- -- 71
2019-03-29 02:00:00 2.1 15 Nordeste 22 Nordeste 0 -- -- 68
2019-03-29 01:00:00 5 15 Nordeste 23 Nordeste 0 -- -- 56
2019-03-29 00:00:00 5.1 17 Nordeste 21 Nordeste 0 -- -- 59
2019-03-28 23:00:00 5.3 18 Nordeste 26 Nordeste 0 -- -- 53
2019-03-28 22:00:00 5.4 11 Nordeste 17 Nordeste 0 -- -- 48
2019-03-28 21:00:00 7.7 12 Este 14 Este 0 -- -- 40
2019-03-28 20:00:00 8.1 8 Nordeste 17 Nordeste 0 -- -- 42
2019-03-28 19:00:00 14.6 15 Nordeste 22 Nordeste 0 -- -- 22
2019-03-28 18:00:00 16.6 19 Nordeste 28 Este 0 -- -- 19
2019-03-28 17:00:00 16.8 18 Nordeste 31 Nordeste 0 -- -- 18
2019-03-28 16:00:00 17.3 17 Este 31 Este 0 -- -- 13
2019-03-28 15:00:00 16.4 18 Este 36 Nordeste 0 -- -- 19
2019-03-28 14:00:00 15 23 Nordeste 35 Nordeste 0 -- -- 24
2019-03-28 13:00:00 13 23 Nordeste 38 Nordeste 0 -- -- 27
2019-03-28 12:00:00 11 24 Nordeste 38 Nordeste 0 -- -- 35
2019-03-28 11:00:00 8.5 26 Nordeste 41 Nordeste 0 -- -- 42
2019-03-28 10:00:00 6.2 21 Nordeste 31 Nordeste 0 -- -- 47
2019-03-28 09:00:00 3.3 25 Nordeste 33 Nordeste 0 -- -- 55
2019-03-28 08:00:00 0.8 22 Nordeste 33 Nordeste 0 -- -- 60
2019-03-28 07:00:00 0.3 27 Nordeste 45 Nordeste 0 -- -- 58
2019-03-28 06:00:00 0.9 27 Nordeste 38 Nordeste 0 -- -- 55
2019-03-28 05:00:00 1.1 21 Nordeste 27 Nordeste 0 -- -- 53
2019-03-28 04:00:00 1.4 14 Nordeste 24 Nordeste 0 -- -- 50
2019-03-28 03:00:00 2 19 Nordeste 39 Nordeste 0 -- -- 50
2019-03-28 02:00:00 3.8 26 Nordeste 36 Nordeste 0 -- -- 45
2019-03-28 01:00:00 5 27 Nordeste 36 Nordeste 0 -- -- 41
2019-03-28 00:00:00 6 23 Nordeste 31 Nordeste 0 -- -- 42
2019-03-27 23:00:00 7.1 23 Nordeste 38 Nordeste 0 -- -- 39
2019-03-27 22:00:00 9.4 32 Nordeste 43 Nordeste 0 -- -- 30
2019-03-27 21:00:00 10.2 28 Nordeste 41 Nordeste 0 -- -- 18
2019-03-27 20:00:00 11.4 21 Nordeste 34 Nordeste 0 -- -- 19
2019-03-27 19:00:00 15.5 25 Nordeste 41 Nordeste 0 -- -- 12
2019-03-27 18:00:00 17.3 27 Nordeste 44 Nordeste 0 -- -- 9
2019-03-27 17:00:00 18 27 Nordeste 40 Nordeste 0 -- -- 10
2019-03-27 16:00:00 17.6 23 Nordeste 35 Nordeste 0 -- -- 17
2019-03-27 15:00:00 16.1 22 Nordeste 33 Nordeste 0 -- -- 17
2019-03-27 14:00:00 14.5 24 Nordeste 41 Nordeste 0 -- -- 19
2019-03-27 13:00:00 13.1 22 Nordeste 35 Nordeste 0 -- -- 24
2019-03-27 12:00:00 11.1 24 Nordeste 36 Nordeste 0 -- -- 31
2019-03-27 11:00:00 8.3 30 Nordeste 49 Nordeste 0 -- -- 37
2019-03-27 10:00:00 6.1 34 Nordeste 46 Nordeste 0 -- -- 46
2019-03-27 09:00:00 2.9 32 Nordeste 40 Nordeste 0 -- -- 61
2019-03-27 08:00:00 0.1 25 Nordeste 33 Nordeste 0 -- -- 70
2019-03-27 07:00:00 -0.3 29 Nordeste 39 Nordeste 0 -- -- 67
2019-03-27 06:00:00 -0.1 27 Nordeste 38 Nordeste 0 -- -- 62
2019-03-27 05:00:00 0.4 31 Nordeste 42 Nordeste 0 -- -- 57
2019-03-27 04:00:00 0.9 31 Nordeste 40 Nordeste 0 -- -- 52
2019-03-27 03:00:00 1.3 26 Nordeste 38 Nordeste 0 -- -- 45
2019-03-27 02:00:00 1.7 23 Nordeste 33 Nordeste 0 -- -- 41
2019-03-27 01:00:00 2.9 22 Nordeste 36 Nordeste 0 -- -- 33
2019-03-27 00:00:00 4.8 28 Nordeste 39 Nordeste 0 -- -- 26
2019-03-26 23:00:00 5.7 30 Nordeste 41 Nordeste 0 -- -- 25
2019-03-26 22:00:00 7.3 26 Nordeste 40 Nordeste 0 -- -- 22
2019-03-26 21:00:00 9.1 28 Nordeste 44 Nordeste 0 -- -- 19
2019-03-26 20:00:00 11.3 33 Nordeste 50 Nordeste 0 -- -- 14
2019-03-26 19:00:00 14.3 37 Nordeste 53 Nordeste 0 -- -- 13
2019-03-26 18:00:00 16.7 31 Nordeste 59 Nordeste 0 -- -- 13
2019-03-26 17:00:00 17.3 32 Este 60 Nordeste 0 -- -- 14
2019-03-26 16:00:00 16.5 35 Nordeste 55 Nordeste 0 -- -- 17
2019-03-26 15:00:00 15.3 40 Nordeste 55 Nordeste 0 -- -- 17
2019-03-26 14:00:00 14.4 37 Nordeste 51 Este 0 -- -- 22
2019-03-26 13:00:00 12.2 39 Nordeste 60 Nordeste 0 -- -- 25
2019-03-26 12:00:00 10 37 Nordeste 56 Nordeste 0 -- -- 37
2019-03-26 11:00:00 8.1 38 Nordeste 65 Nordeste 0 -- -- 44
2019-03-26 10:00:00 5.6 41 Nordeste 69 Este 0 -- -- 57
2019-03-26 09:00:00 3.7 33 Nordeste 48 Nordeste 0 -- -- 69
2019-03-26 08:00:00 1.2 22 Nordeste 35 Nordeste 0 -- -- 83
2019-03-26 07:00:00 0.4 21 Nordeste 37 Nordeste 0 -- -- 80
2019-03-26 06:00:00 0.6 26 Nordeste 33 Nordeste 0 -- -- 76
2019-03-26 05:00:00 0.6 26 Nordeste 32 Nordeste 0 -- -- 74
2019-03-26 04:00:00 0.4 23 Nordeste 34 Este 0 -- -- 73
2019-03-26 03:00:00 1.5 23 Nordeste 46 Nordeste 0 -- -- 67
2019-03-26 02:00:00 2.2 32 Nordeste 50 Nordeste 0 -- -- 67
2019-03-26 01:00:00 3.1 34 Nordeste 48 Nordeste 0 -- -- 63
2019-03-26 00:00:00 4.4 37 Nordeste 46 Nordeste 0 -- -- 58
2019-03-25 23:00:00 5.3 31 Nordeste 42 Nordeste 0 -- -- 55
2019-03-25 22:00:00 7 34 Nordeste 46 Nordeste 0 -- -- 49
2019-03-25 21:00:00 7.9 28 Nordeste 50 Nordeste 0 -- -- 45
2019-03-25 20:00:00 9.6 31 Nordeste 42 Nordeste 0 -- -- 39
2019-03-25 19:00:00 12.6 31 Nordeste 44 Nordeste 0 -- -- 32
2019-03-25 18:00:00 14.4 34 Nordeste 48 Nordeste 0 -- -- 27
2019-03-25 17:00:00 15.3 38 Nordeste 52 Nordeste 0 -- -- 25
2019-03-25 16:00:00 15.8 37 Nordeste 48 Nordeste 0 -- -- 26
2019-03-25 15:00:00 15.8 28 Nordeste 44 Nordeste 0 -- -- 25
2019-03-25 14:00:00 15.7 27 Este 39 Nordeste 0 -- -- 31
2019-03-25 13:00:00 14.3 25 Nordeste 38 Nordeste 0 -- -- 40
2019-03-25 12:00:00 12.8 29 Nordeste 40 Este 0 -- -- 45
2019-03-25 11:00:00 10.2 33 Nordeste 56 Este 0 -- -- 51
2019-03-25 10:00:00 7.8 30 Nordeste 44 Nordeste 0 -- -- 57
2019-03-25 09:00:00 5.4 26 Nordeste 41 Nordeste 0 -- -- 70
2019-03-25 08:00:00 3.6 27 Nordeste 36 Nordeste 0 -- -- 75
2019-03-25 07:00:00 3.7 28 Nordeste 36 Nordeste 0 -- -- 74
2019-03-25 06:00:00 4.1 27 Nordeste 37 Nordeste 0 -- -- 74
2019-03-25 05:00:00 4.6 24 Nordeste 33 Nordeste 0 -- -- 75
2019-03-25 04:00:00 5.2 25 Nordeste 39 Nordeste 0 -- -- 76
2019-03-25 03:00:00 6.2 26 Nordeste 33 Nordeste 0 -- -- 72
2019-03-25 02:00:00 6.9 25 Nordeste 33 Nordeste 0 -- -- 71
2019-03-25 01:00:00 7.4 19 Nordeste 31 Nordeste 0 -- -- 63
2019-03-25 00:00:00 8.3 19 Nordeste 31 Este 0 -- -- 48
2019-03-24 23:00:00 6.6 16 Este 23 Nordeste 0 -- -- 53
2019-03-24 22:00:00 6.7 11 Nordeste 13 Nordeste 0 -- -- 45
2019-03-24 21:00:00 8.5 8 Nordeste 11 Nordeste 0 -- -- 36
2019-03-24 20:00:00 10.8 9 Nordeste 18 Nordeste 0 -- -- 30
2019-03-24 19:00:00 16.7 13 Nordeste 26 Nordeste 0 -- -- 18
2019-03-24 18:00:00 19.1 17 Nordeste 32 Nordeste 0 -- -- 17
2019-03-24 17:00:00 20.5 15 Este 48 Este 0 -- -- 11
2019-03-24 16:00:00 20 20 Este 38 Nordeste 0 -- -- 17
2019-03-24 15:00:00 18.3 24 Nordeste 39 Nordeste 0 -- -- 25
2019-03-24 14:00:00 17.2 21 Nordeste 36 Este 0 -- -- 30
2019-03-24 13:00:00 16.1 19 Nordeste 29 Nordeste 0 -- -- 31
2019-03-24 12:00:00 14.2 19 Nordeste 35 Nordeste 0 -- -- 40
2019-03-24 11:00:00 11.9 22 Nordeste 31 Nordeste 0 -- -- 48
2019-03-24 10:00:00 9.3 22 Nordeste 32 Nordeste 0 -- -- 55
2019-03-24 09:00:00 6 22 Nordeste 27 Nordeste 0 -- -- 65
2019-03-24 08:00:00 3.1 18 Nordeste 26 Nordeste 0 -- -- 75
2019-03-24 07:00:00 2.2 19 Nordeste 26 Nordeste 0 -- -- 74
2019-03-24 06:00:00 2 17 Nordeste 24 Nordeste 0 -- -- 74
2019-03-24 05:00:00 3 14 Nordeste 19 Nordeste 0 -- -- 70
2019-03-24 04:00:00 4 10 Nordeste 18 Nordeste 0 -- -- 67
2019-03-24 03:00:00 4.5 12 Nordeste 19 Nordeste 0 -- -- 68
2019-03-24 02:00:00 5.4 13 Nordeste 19 Nordeste 0 -- -- 65
2019-03-24 01:00:00 6 16 Nordeste 22 Nordeste 0 -- -- 62
2019-03-24 00:00:00 5.1 14 Nordeste 16 Nordeste 0 -- -- 63
2019-03-23 23:00:00 7.3 10 Nordeste 22 Nordeste 0 -- -- 57
2019-03-23 22:00:00 8.2 12 Nordeste 17 Nordeste 0 -- -- 53
2019-03-23 21:00:00 10.5 14 Nordeste 24 Nordeste 0 -- -- 42
2019-03-23 20:00:00 12.3 15 Nordeste 25 Nordeste 0 -- -- 34
2019-03-23 19:00:00 15.7 18 Nordeste 28 Nordeste 0 -- -- 27
2019-03-23 18:00:00 18.1 21 Este 37 Este 0 -- -- 21
2019-03-23 17:00:00 18.6 15 Nordeste 30 Este 0 -- -- 18
2019-03-23 16:00:00 18.9 15 Este 31 Este 0 -- -- 21
2019-03-23 15:00:00 19 15 Este 55 Este 0 -- -- 22
2019-03-23 14:00:00 16.9 19 Nordeste 31 Nordeste 0 -- -- 30
2019-03-23 13:00:00 15 18 Nordeste 27 Nordeste 0 -- -- 36
2019-03-23 12:00:00 12.6 21 Nordeste 31 Nordeste 0 -- -- 36
2019-03-23 11:00:00 10.1 20 Nordeste 28 Este 0 -- -- 45
2019-03-23 10:00:00 6.9 21 Nordeste 37 Nordeste 0 -- -- 54
2019-03-23 09:00:00 4 23 Nordeste 31 Nordeste 0 -- -- 63
2019-03-23 08:00:00 0.9 17 Nordeste 23 Nordeste 0 -- -- 72
2019-03-23 07:00:00 0.6 16 Nordeste 23 Nordeste 0 -- -- 69
2019-03-23 06:00:00 1.2 18 Nordeste 22 Nordeste 0 -- -- 67
2019-03-23 05:00:00 1.9 12 Nordeste 17 Nordeste 0 -- -- 62
2019-03-23 04:00:00 2.3 17 Nordeste 22 Este 0 -- -- 63
2019-03-23 03:00:00 2.5 10 Nordeste -- -- 0 -- -- 58
2019-03-23 02:00:00 2 13 Nordeste 21 Nordeste 0 -- -- 63
2019-03-23 01:00:00 3.6 13 Este 17 Este 0 -- -- 57
2019-03-23 00:00:00 2.1 5 Nordeste 6 Este 0 -- -- 62
2019-03-22 23:00:00 4.4 5 Nordeste 9 Nordeste 0 -- -- 53
2019-03-22 22:00:00 5.6 6 Nordeste 10 Nordeste 0 -- -- 48
2019-03-22 21:00:00 5.7 8 Nordeste 16 Norte 0 -- -- 50
2019-03-22 20:00:00 7.5 10 Nordeste 19 Nordeste 0 -- -- 44
2019-03-22 19:00:00 13.1 11 Nordeste 20 Nordeste 0 -- -- 28
2019-03-22 18:00:00 15.6 13 Nordeste 21 Nordeste 0 -- -- 23
2019-03-22 17:00:00 16.5 10 Nordeste 23 Nordeste 0 -- -- 20
2019-03-22 16:00:00 16.8 7 Este 17 Norte 0 -- -- 20
2019-03-22 15:00:00 15.7 8 Norte 15 Nordeste 0 -- -- 20
2019-03-22 14:00:00 16 7 Sudeste 15 Nordeste 0 -- -- 21
2019-03-22 13:00:00 13.8 10 Nordeste 17 Nordeste 0 -- -- 30
2019-03-22 12:00:00 12.1 12 Nordeste 18 Nordeste 0 -- -- 39
2019-03-22 11:00:00 9.3 14 Nordeste 18 Nordeste 0 -- -- 48
2019-03-22 10:00:00 6.1 14 Nordeste 19 Nordeste 0 -- -- 63
2019-03-22 09:00:00 2.4 13 Nordeste 26 Nordeste 0 -- -- 76
2019-03-22 08:00:00 -0.9 8 Nordeste 19 Nordeste 0 -- -- 85
2019-03-22 07:00:00 -0.6 18 Nordeste 25 Nordeste 0 -- -- 78
2019-03-22 06:00:00 -0.6 16 Nordeste 21 Nordeste 0 -- -- 77
2019-03-22 05:00:00 -0.4 18 Nordeste 23 Nordeste 0 -- -- 75
2019-03-22 04:00:00 -1.2 13 Nordeste 14 Nordeste 0 -- -- 71
2019-03-22 03:00:00 0.3 3 Nordeste 9 Nordeste 0 -- -- 61
2019-03-22 02:00:00 1.2 5 Nordeste 8 Nordeste 0 -- -- 58
2019-03-22 01:00:00 1.4 6 Este 8 Este 0 -- -- 60
2019-03-22 00:00:00 1.6 0 Calma 3 Este 0 -- -- 59
2019-03-21 23:00:00 2 0 Calma 4 Este 0 -- -- 56
2019-03-21 22:00:00 2.1 4 Nordeste 11 Nordeste 0 -- -- 56
2019-03-21 21:00:00 4.7 7 Este 10 Nordeste 0 -- -- 46
2019-03-21 20:00:00 6.5 5 Nordeste 13 Nordeste 0 -- -- 41
2019-03-21 19:00:00 11.7 10 Nordeste 15 Nordeste 0 -- -- 27
2019-03-21 18:00:00 13.7 8 Norte 17 Nordeste 0 -- -- 20
2019-03-21 17:00:00 14.1 9 Nordeste 17 Nordeste 0 -- -- 24
2019-03-21 16:00:00 14.1 8 Noroeste 17 Norte 0 -- -- 23
2019-03-21 15:00:00 14.5 6 Este 19 Este 0 -- -- 28
2019-03-21 14:00:00 12.6 13 Este 22 Nordeste 0 -- -- 30
2019-03-21 13:00:00 10 17 Nordeste 34 Nordeste 0 -- -- 38
2019-03-21 12:00:00 8.1 20 Nordeste 28 Nordeste 0 -- -- 47
2019-03-21 11:00:00 5.9 19 Nordeste 27 Nordeste 0 -- -- 55
2019-03-21 10:00:00 3.5 21 Nordeste 27 Nordeste 0 -- -- 66
2019-03-21 09:00:00 0.7 23 Nordeste 33 Nordeste 0 -- -- 87
2019-03-21 08:00:00 -1.4 21 Nordeste 37 Nordeste 0 -- -- 95
2019-03-21 07:00:00 -1.8 19 Nordeste 28 Nordeste 0 -- -- 87
2019-03-21 06:00:00 -1.4 19 Nordeste 31 Nordeste 0 -- -- 79
2019-03-21 05:00:00 -1.4 17 Nordeste 22 Nordeste 0 -- -- 76
2019-03-21 04:00:00 -0.7 14 Nordeste 30 Nordeste 0 -- -- 71
2019-03-21 03:00:00 -0.1 19 Nordeste 27 Nordeste 0 -- -- 69
2019-03-21 02:00:00 0.4 19 Nordeste 30 Nordeste 0 -- -- 68
2019-03-21 01:00:00 1.1 18 Nordeste 23 Nordeste 0 -- -- 66
2019-03-21 00:00:00 1.7 12 Nordeste 22 Este 0 -- -- 62